Aviation Digital Data Service (ADDS)

Output produced by METARs form (0030 UTC 19 August 2019)
found at http://www.aviationweather.gov/metar/data/
 
METAR text: TLPL 190000Z 09015KT 9999 FEW022 29/25 Q1015 NOSIG
Conditions at: TLPL (HEWANORRA INTL , LC) observed 0000 UTC 19 August 2019
Temperature: 29.0°C (84°F)
Dewpoint: 25.0°C (77°F) [RH = 79%]
Pressure (altimeter): 29.97 inches Hg (1015.0 mb)
Winds: from the E (90 degrees) at 17 MPH (15 knots; 7.7 m/s)
Visibility: 6 or more miles (10+ km)
Ceiling: at least 12,000 feet AGL
Clouds: few clouds at 2200 feet AGL
Weather: no significant weather observed at this time

METAR text: TLPL 182300Z 07013KT 9999 FEW021 29/25 Q1015 NOSIG
Conditions at: TLPL (HEWANORRA INTL , LC) observed 2300 UTC 18 August 2019
Temperature: 29.0°C (84°F)
Dewpoint: 25.0°C (77°F) [RH = 79%]
Pressure (altimeter): 29.97 inches Hg (1015.0 mb)
Winds: from the ENE (70 degrees) at 15 MPH (13 knots; 6.7 m/s)
Visibility: 6 or more miles (10+ km)
Ceiling: at least 12,000 feet AGL
Clouds: few clouds at 2100 feet AGL
Weather: no significant weather observed at this time

METAR text: TLPL 182200Z 08013KT 9999 FEW018CB SCT21 30/25 Q1014 NOSIG
Conditions at: TLPL (HEWANORRA INTL , LC) observed 2200 UTC 18 August 2019
Temperature: 30.0°C (86°F)
Dewpoint: 25.0°C (77°F) [RH = 75%]
Pressure (altimeter): 29.94 inches Hg (1014.0 mb)
Winds: from the E (80 degrees) at 15 MPH (13 knots; 6.7 m/s)
Visibility: 6 or more miles (10+ km)
Ceiling: at least 12,000 feet AGL
Clouds: few clouds at 1800 feet AGL
Weather: no significant weather observed at this time

METAR text: TLPL 182100Z 09015KT 9999 FEW018CB SCT027 30/26 Q1014 NOSIG
Conditions at: TLPL (HEWANORRA INTL , LC) observed 2100 UTC 18 August 2019
Temperature: 30.0°C (86°F)
Dewpoint: 26.0°C (79°F) [RH = 79%]
Pressure (altimeter): 29.94 inches Hg (1014.0 mb)
Winds: from the E (90 degrees) at 17 MPH (15 knots; 7.7 m/s)
Visibility: 6 or more miles (10+ km)
Ceiling: at least 12,000 feet AGL
Clouds: few clouds at 1800 feet AGL
scattered clouds at 2700 feet AGL
Weather: no significant weather observed at this time

METAR text: TLPL 182000Z 09015KT 9999 FEW018CB SCT027 31/25 Q1014 NOSIG
Conditions at: TLPL (HEWANORRA INTL , LC) observed 2000 UTC 18 August 2019
Temperature: 31.0°C (88°F)
Dewpoint: 25.0°C (77°F) [RH = 71%]
Pressure (altimeter): 29.94 inches Hg (1014.0 mb)
Winds: from the E (90 degrees) at 17 MPH (15 knots; 7.7 m/s)
Visibility: 6 or more miles (10+ km)
Ceiling: at least 12,000 feet AGL
Clouds: few clouds at 1800 feet AGL
scattered clouds at 2700 feet AGL
Weather: no significant weather observed at this time

METAR text: TLPL 181900Z 09015KT 9999 FEW020CB SCT027 31/25 Q1014 NOSIG
Conditions at: TLPL (HEWANORRA INTL , LC) observed 1900 UTC 18 August 2019
Temperature: 31.0°C (88°F)
Dewpoint: 25.0°C (77°F) [RH = 71%]
Pressure (altimeter): 29.94 inches Hg (1014.0 mb)
Winds: from the E (90 degrees) at 17 MPH (15 knots; 7.7 m/s)
Visibility: 6 or more miles (10+ km)
Ceiling: at least 12,000 feet AGL
Clouds: few clouds at 2000 feet AGL
scattered clouds at 2700 feet AGL
Weather: no significant weather observed at this time

METAR text: TLPL 181800Z 09016KT 9999 FEW018CB SCT027 32/26 Q1015 NOSIG
Conditions at: TLPL (HEWANORRA INTL , LC) observed 1800 UTC 18 August 2019
Temperature: 32.0°C (90°F)
Dewpoint: 26.0°C (79°F) [RH = 71%]
Pressure (altimeter): 29.97 inches Hg (1015.0 mb)
Winds: from the E (90 degrees) at 18 MPH (16 knots; 8.2 m/s)
Visibility: 6 or more miles (10+ km)
Ceiling: at least 12,000 feet AGL
Clouds: few clouds at 1800 feet AGL
scattered clouds at 2700 feet AGL
Weather: no significant weather observed at this time

METAR text: TLPL 181700Z 09014KT 9999 FEW019 SCT027 31/26 Q1015 NOSIG
Conditions at: TLPL (HEWANORRA INTL , LC) observed 1700 UTC 18 August 2019
Temperature: 31.0°C (88°F)
Dewpoint: 26.0°C (79°F) [RH = 75%]
Pressure (altimeter): 29.97 inches Hg (1015.0 mb)
Winds: from the E (90 degrees) at 16 MPH (14 knots; 7.2 m/s)
Visibility: 6 or more miles (10+ km)
Ceiling: at least 12,000 feet AGL
Clouds: few clouds at 1900 feet AGL
scattered clouds at 2700 feet AGL
Weather: no significant weather observed at this time

METAR text: TLPL 181600Z 10014KT 9999 SCT026 31/25 Q1016 NOSIG
Conditions at: TLPL (HEWANORRA INTL , LC) observed 1600 UTC 18 August 2019
Temperature: 31.0°C (88°F)
Dewpoint: 25.0°C (77°F) [RH = 71%]
Pressure (altimeter): 30.00 inches Hg (1016.0 mb)
Winds: from the E (100 degrees) at 16 MPH (14 knots; 7.2 m/s)
Visibility: 6 or more miles (10+ km)
Ceiling: at least 12,000 feet AGL
Clouds: scattered clouds at 2600 feet AGL
Weather: no significant weather observed at this time

METAR text: TLPL 181500Z 10015KT 9999 SCT027 31/25 Q1016 NOSIG
Conditions at: TLPL (HEWANORRA INTL , LC) observed 1500 UTC 18 August 2019
Temperature: 31.0°C (88°F)
Dewpoint: 25.0°C (77°F) [RH = 71%]
Pressure (altimeter): 30.00 inches Hg (1016.0 mb)
Winds: from the E (100 degrees) at 17 MPH (15 knots; 7.7 m/s)
Visibility: 6 or more miles (10+ km)
Ceiling: at least 12,000 feet AGL
Clouds: scattered clouds at 2700 feet AGL
Weather: no significant weather observed at this time

METAR text: TLPL 181400Z 09015KT 9999 SCT025 30/25 Q1016 NOSIG
Conditions at: TLPL (HEWANORRA INTL , LC) observed 1400 UTC 18 August 2019
Temperature: 30.0°C (86°F)
Dewpoint: 25.0°C (77°F) [RH = 75%]
Pressure (altimeter): 30.00 inches Hg (1016.0 mb)
Winds: from the E (90 degrees) at 17 MPH (15 knots; 7.7 m/s)
Visibility: 6 or more miles (10+ km)
Ceiling: at least 12,000 feet AGL
Clouds: scattered clouds at 2500 feet AGL
Weather: no significant weather observed at this time

METAR text: TLPL 181300Z 09015KT 9999 BKN025 30/25 Q1016 NOSIG
Conditions at: TLPL (HEWANORRA INTL , LC) observed 1300 UTC 18 August 2019
Temperature: 30.0°C (86°F)
Dewpoint: 25.0°C (77°F) [RH = 75%]
Pressure (altimeter): 30.00 inches Hg (1016.0 mb)
Winds: from the E (90 degrees) at 17 MPH (15 knots; 7.7 m/s)
Visibility: 6 or more miles (10+ km)
Ceiling: 2500 feet AGL
Clouds: broken clouds at 2500 feet AGL
Weather: no significant weather observed at this time

METAR text: TLPL 181200Z 09014KT 9999 FEW025 29/25 Q1015 NOSIG
Conditions at: TLPL (HEWANORRA INTL , LC) observed 1200 UTC 18 August 2019
Temperature: 29.0°C (84°F)
Dewpoint: 25.0°C (77°F) [RH = 79%]
Pressure (altimeter): 29.97 inches Hg (1015.0 mb)
Winds: from the E (90 degrees) at 16 MPH (14 knots; 7.2 m/s)
Visibility: 6 or more miles (10+ km)
Ceiling: at least 12,000 feet AGL
Clouds: few clouds at 2500 feet AGL
Weather: no significant weather observed at this time

METAR text: TLPL 181100Z 10013KT 9999 FEW025 29/24 Q1015 NOSIG
Conditions at: TLPL (HEWANORRA INTL , LC) observed 1100 UTC 18 August 2019
Temperature: 29.0°C (84°F)
Dewpoint: 24.0°C (75°F) [RH = 74%]
Pressure (altimeter): 29.97 inches Hg (1015.0 mb)
Winds: from the E (100 degrees) at 15 MPH (13 knots; 6.7 m/s)
Visibility: 6 or more miles (10+ km)
Ceiling: at least 12,000 feet AGL
Clouds: few clouds at 2500 feet AGL
Weather: no significant weather observed at this time

METAR text: TLPL 181000Z 09014KT 9999 SCT020 29/25 Q1015 NOSIG
Conditions at: TLPL (HEWANORRA INTL , LC) observed 1000 UTC 18 August 2019
Temperature: 29.0°C (84°F)
Dewpoint: 25.0°C (77°F) [RH = 79%]
Pressure (altimeter): 29.97 inches Hg (1015.0 mb)
Winds: from the E (90 degrees) at 16 MPH (14 knots; 7.2 m/s)
Visibility: 6 or more miles (10+ km)
Ceiling: at least 12,000 feet AGL
Clouds: scattered clouds at 2000 feet AGL
Weather: no significant weather observed at this time

METAR text: TLPL 180900Z 09015KT 9999 FEW016TCU SCT042 28/25 Q1015 NOSIG
Conditions at: TLPL (HEWANORRA INTL , LC) observed 0900 UTC 18 August 2019
Temperature: 28.0°C (82°F)
Dewpoint: 25.0°C (77°F) [RH = 84%]
Pressure (altimeter): 29.97 inches Hg (1015.0 mb)
Winds: from the E (90 degrees) at 17 MPH (15 knots; 7.7 m/s)
Visibility: 6 or more miles (10+ km)
Ceiling: at least 12,000 feet AGL
Clouds: few clouds at 1600 feet AGL
scattered clouds at 4200 feet AGL
Weather: no significant weather observed at this time

METAR text: TLPL 180800Z 07010KT 9999 FEW016TCU BKN042 27/25 Q1015 NOSIG
Conditions at: TLPL (HEWANORRA INTL , LC) observed 0800 UTC 18 August 2019
Temperature: 27.0°C (81°F)
Dewpoint: 25.0°C (77°F) [RH = 89%]
Pressure (altimeter): 29.97 inches Hg (1015.0 mb)
Winds: from the ENE (70 degrees) at 12 MPH (10 knots; 5.1 m/s)
Visibility: 6 or more miles (10+ km)
Ceiling: 4200 feet AGL
Clouds: few clouds at 1600 feet AGL
broken clouds at 4200 feet AGL
Weather: no significant weather observed at this time

METAR text: TLPL 180700Z 08011KT 9999 FEW024 BKN042 28/24 Q1015 NOSIG
Conditions at: TLPL (HEWANORRA INTL , LC) observed 0700 UTC 18 August 2019
Temperature: 28.0°C (82°F)
Dewpoint: 24.0°C (75°F) [RH = 79%]
Pressure (altimeter): 29.97 inches Hg (1015.0 mb)
Winds: from the E (80 degrees) at 13 MPH (11 knots; 5.7 m/s)
Visibility: 6 or more miles (10+ km)
Ceiling: 4200 feet AGL
Clouds: few clouds at 2400 feet AGL
broken clouds at 4200 feet AGL
Weather: no significant weather observed at this time

METAR text: TLPL 180600Z 09015KT 9999 FEW024 BKN042 28/24 Q1015 NOSIG
Conditions at: TLPL (HEWANORRA INTL , LC) observed 0600 UTC 18 August 2019
Temperature: 28.0°C (82°F)
Dewpoint: 24.0°C (75°F) [RH = 79%]
Pressure (altimeter): 29.97 inches Hg (1015.0 mb)
Winds: from the E (90 degrees) at 17 MPH (15 knots; 7.7 m/s)
Visibility: 6 or more miles (10+ km)
Ceiling: 4200 feet AGL
Clouds: few clouds at 2400 feet AGL
broken clouds at 4200 feet AGL
Weather: no significant weather observed at this time

METAR text: TLPL 180500Z 08012KT 9999 -SHRA FEW022 28/24 Q1016 NOSIG
Conditions at: TLPL (HEWANORRA INTL , LC) observed 0500 UTC 18 August 2019
Temperature: 28.0°C (82°F)
Dewpoint: 24.0°C (75°F) [RH = 79%]
Pressure (altimeter): 30.00 inches Hg (1016.0 mb)
Winds: from the E (80 degrees) at 14 MPH (12 knots; 6.2 m/s)
Visibility: 6 or more miles (10+ km)
Ceiling: at least 12,000 feet AGL
Clouds: few clouds at 2200 feet AGL
Weather: -SHRA  (light rain showers)

METAR text: TLPL 180430Z 08012KT 9999 SCT023 28/24 Q1016 TEMPO SHRA
Conditions at: TLPL (HEWANORRA INTL , LC) observed 0430 UTC 18 August 2019
Temperature: 28.0°C (82°F)
Dewpoint: 24.0°C (75°F) [RH = 79%]
Pressure (altimeter): 30.00 inches Hg (1016.0 mb)
Winds: from the E (80 degrees) at 14 MPH (12 knots; 6.2 m/s)
Visibility: 6 or more miles (10+ km)
Ceiling: at least 12,000 feet AGL
Clouds: scattered clouds at 2300 feet AGL
Weather: no significant weather observed at this time

METAR text: TLPL 180300Z 09012KT 9999 FEW024 28/24 Q1016 NOSIG
Conditions at: TLPL (HEWANORRA INTL , LC) observed 0300 UTC 18 August 2019
Temperature: 28.0°C (82°F)
Dewpoint: 24.0°C (75°F) [RH = 79%]
Pressure (altimeter): 30.00 inches Hg (1016.0 mb)
Winds: from the E (90 degrees) at 14 MPH (12 knots; 6.2 m/s)
Visibility: 6 or more miles (10+ km)
Ceiling: at least 12,000 feet AGL
Clouds: few clouds at 2400 feet AGL
Weather: no significant weather observed at this time

METAR text: TLPL 180200Z 09015KT 9999 FEW024 28/24 Q1016 NOSIG
Conditions at: TLPL (HEWANORRA INTL , LC) observed 0200 UTC 18 August 2019
Temperature: 28.0°C (82°F)
Dewpoint: 24.0°C (75°F) [RH = 79%]
Pressure (altimeter): 30.00 inches Hg (1016.0 mb)
Winds: from the E (90 degrees) at 17 MPH (15 knots; 7.7 m/s)
Visibility: 6 or more miles (10+ km)
Ceiling: at least 12,000 feet AGL
Clouds: few clouds at 2400 feet AGL
Weather: no significant weather observed at this time

METAR text: TLPL 180100Z 10016KT 9999 SCT023 BKN270 28/25 Q1016 NOSIG
Conditions at: TLPL (HEWANORRA INTL , LC) observed 0100 UTC 18 August 2019
Temperature: 28.0°C (82°F)
Dewpoint: 25.0°C (77°F) [RH = 84%]
Pressure (altimeter): 30.00 inches Hg (1016.0 mb)
Winds: from the E (100 degrees) at 18 MPH (16 knots; 8.2 m/s)
Visibility: 6 or more miles (10+ km)
Ceiling: 27000 feet AGL
Clouds: scattered clouds at 2300 feet AGL
broken clouds at 27000 feet AGL
Weather: no significant weather observed at this time

METAR text: TLPL 180000Z 10016KT 9999 BKN023 27/24 Q1015 NOSIG
Conditions at: TLPL (HEWANORRA INTL , LC) observed 0000 UTC 18 August 2019
Temperature: 27.0°C (81°F)
Dewpoint: 24.0°C (75°F) [RH = 84%]
Pressure (altimeter): 29.97 inches Hg (1015.0 mb)
Winds: from the E (100 degrees) at 18 MPH (16 knots; 8.2 m/s)
Visibility: 6 or more miles (10+ km)
Ceiling: 2300 feet AGL
Clouds: broken clouds at 2300 feet AGL
Weather: no significant weather observed at this time

METAR text: TLPL 172300Z 10017KT 9999 VCSH FEW022 27/24 Q1015 NOSIG
Conditions at: TLPL (HEWANORRA INTL , LC) observed 2300 UTC 17 August 2019
Temperature: 27.0°C (81°F)
Dewpoint: 24.0°C (75°F) [RH = 84%]
Pressure (altimeter): 29.97 inches Hg (1015.0 mb)
Winds: from the E (100 degrees) at 20 MPH (17 knots; 8.7 m/s)
Visibility: 6 or more miles (10+ km)
Ceiling: at least 12,000 feet AGL
Clouds: few clouds at 2200 feet AGL
Weather: VCSH  (showers in vicinity)

METAR text: TLPL 172200Z 07011KT 9999 FEW017 SCT022 27/25 Q1015 NOSIG
Conditions at: TLPL (HEWANORRA INTL , LC) observed 2200 UTC 17 August 2019
Temperature: 27.0°C (81°F)
Dewpoint: 25.0°C (77°F) [RH = 89%]
Pressure (altimeter): 29.97 inches Hg (1015.0 mb)
Winds: from the ENE (70 degrees) at 13 MPH (11 knots; 5.7 m/s)
Visibility: 6 or more miles (10+ km)
Ceiling: at least 12,000 feet AGL
Clouds: few clouds at 1700 feet AGL
scattered clouds at 2200 feet AGL
Weather: no significant weather observed at this time

METAR text: TLPL 172100Z 07011KT 9999 FEW017 SCT042 27/25 Q1014 NOSIG
Conditions at: TLPL (HEWANORRA INTL , LC) observed 2100 UTC 17 August 2019
Temperature: 27.0°C (81°F)
Dewpoint: 25.0°C (77°F) [RH = 89%]
Pressure (altimeter): 29.94 inches Hg (1014.0 mb)
Winds: from the ENE (70 degrees) at 13 MPH (11 knots; 5.7 m/s)
Visibility: 6 or more miles (10+ km)
Ceiling: at least 12,000 feet AGL
Clouds: few clouds at 1700 feet AGL
scattered clouds at 4200 feet AGL
Weather: no significant weather observed at this time

METAR text: TLPL 172000Z 08013KT 9999 FEW014CB BKN042 27/24 Q1015 NOSIG
Conditions at: TLPL (HEWANORRA INTL , LC) observed 2000 UTC 17 August 2019
Temperature: 27.0°C (81°F)
Dewpoint: 24.0°C (75°F) [RH = 84%]
Pressure (altimeter): 29.97 inches Hg (1015.0 mb)
Winds: from the E (80 degrees) at 15 MPH (13 knots; 6.7 m/s)
Visibility: 6 or more miles (10+ km)
Ceiling: 4200 feet AGL
Clouds: few clouds at 1400 feet AGL
broken clouds at 4200 feet AGL
Weather: no significant weather observed at this time

METAR text: TLPL 171900Z 07011KT 9999 FEW014CB BKN042 27/24 Q1015 NOSIG
Conditions at: TLPL (HEWANORRA INTL , LC) observed 1900 UTC 17 August 2019
Temperature: 27.0°C (81°F)
Dewpoint: 24.0°C (75°F) [RH = 84%]
Pressure (altimeter): 29.97 inches Hg (1015.0 mb)
Winds: from the ENE (70 degrees) at 13 MPH (11 knots; 5.7 m/s)
Visibility: 6 or more miles (10+ km)
Ceiling: 4200 feet AGL
Clouds: few clouds at 1400 feet AGL
broken clouds at 4200 feet AGL
Weather: no significant weather observed at this time

METAR text: TLPL 171800Z 07010KT 7000 -RA FEW006 FEW014CB OVC039 25/23 Q1010 NOSIG
Conditions at: TLPL (HEWANORRA INTL , LC) observed 1800 UTC 17 August 2019
Temperature: 25.0°C (77°F)
Dewpoint: 23.0°C (73°F) [RH = 89%]
Pressure (altimeter): 29.82 inches Hg (1010.0 mb)
Winds: from the ENE (70 degrees) at 12 MPH (10 knots; 5.1 m/s)
Visibility: 4 miles ( 7 km)
Ceiling: 3900 feet AGL
Clouds: few clouds at 600 feet AGL
few clouds at 1400 feet AGL
overcast cloud deck at 3900 feet AGL
Weather: -RA  (light rain)

METAR text: TLPL 171700Z 09011KT 8000 -RA FEW006 FEW014CB BKN039 25/24 Q1016 NOSIG
Conditions at: TLPL (HEWANORRA INTL , LC) observed 1700 UTC 17 August 2019
Temperature: 25.0°C (77°F)
Dewpoint: 24.0°C (75°F) [RH = 94%]
Pressure (altimeter): 30.00 inches Hg (1016.0 mb)
Winds: from the E (90 degrees) at 13 MPH (11 knots; 5.7 m/s)
Visibility: 5 miles ( 8 km)
Ceiling: 3900 feet AGL
Clouds: few clouds at 600 feet AGL
few clouds at 1400 feet AGL
broken clouds at 3900 feet AGL
Weather: -RA  (light rain)

METAR text: TLPL 171600Z 15013KT 5000 -SHRA FEW007 FEW014CB SCT016 BKN039 24/24 Q1017 NOSIG
Conditions at: TLPL (HEWANORRA INTL , LC) observed 1600 UTC 17 August 2019
Temperature: 24.0°C (75°F)
Dewpoint: 24.0°C (75°F) [RH = 100%]
Pressure (altimeter): 30.03 inches Hg (1017.0 mb)
Winds: from the SSE (150 degrees) at 15 MPH (13 knots; 6.7 m/s)
Visibility: 3 miles ( 5 km)
Ceiling: 3900 feet AGL
Clouds: few clouds at 700 feet AGL
few clouds at 1400 feet AGL
scattered clouds at 1600 feet AGL
broken clouds at 3900 feet AGL
Weather: -SHRA  (light rain showers)

METAR text: TLPL 171530Z 16020G30KT 1500 +SHRA FW014CB BKN039 29/24 Q1018 NOSIG
Conditions at: TLPL (HEWANORRA INTL , LC) observed 1530 UTC 17 August 2019
Temperature: 29.0°C (84°F)
Dewpoint: 24.0°C (75°F) [RH = 74%]
Pressure (altimeter): 30.06 inches Hg (1018.0 mb)
Winds: from the SSE (160 degrees) at 23 MPH (20 knots; 10.3 m/s)
gusting to 34 MPH (30 knots; 15.4 m/s)
Visibility: 0.93 miles (1.50 km)
Ceiling: 3900 feet AGL
Clouds: broken clouds at 3900 feet AGL
Weather: +SHRA  (heavy rain showers)

METAR text: TLPL 171500Z 11019KT 8000 VCSH FEW014CB BKN039 29/24 Q1017 TEMPO SHRA
Conditions at: TLPL (HEWANORRA INTL , LC) observed 1500 UTC 17 August 2019
Temperature: 29.0°C (84°F)
Dewpoint: 24.0°C (75°F) [RH = 74%]
Pressure (altimeter): 30.03 inches Hg (1017.0 mb)
Winds: from the ESE (110 degrees) at 22 MPH (19 knots; 9.8 m/s)
Visibility: 5 miles ( 8 km)
Ceiling: 3900 feet AGL
Clouds: few clouds at 1400 feet AGL
broken clouds at 3900 feet AGL
Weather: VCSH  (showers in vicinity)

METAR text: TLPL 171400Z 10018KT 9999 FEW016 BKN042 28/25 Q1017 NOSIG
Conditions at: TLPL (HEWANORRA INTL , LC) observed 1400 UTC 17 August 2019
Temperature: 28.0°C (82°F)
Dewpoint: 25.0°C (77°F) [RH = 84%]
Pressure (altimeter): 30.03 inches Hg (1017.0 mb)
Winds: from the E (100 degrees) at 21 MPH (18 knots; 9.3 m/s)
Visibility: 6 or more miles (10+ km)
Ceiling: 4200 feet AGL
Clouds: few clouds at 1600 feet AGL
broken clouds at 4200 feet AGL
Weather: no significant weather observed at this time

METAR text: TLPL 171300Z 11018KT 9999 SCT018 BKN039 28/25 1016 TEMPO SHRA
Conditions at: TLPL (HEWANORRA INTL , LC) observed 1300 UTC 17 August 2019
Temperature: 28.0°C (82°F)
Dewpoint: 25.0°C (77°F) [RH = 84%]
Pressure (altimeter): missing
Winds: from the ESE (110 degrees) at 21 MPH (18 knots; 9.3 m/s)
Visibility: 6 or more miles (10+ km)
Ceiling: 3900 feet AGL
Clouds: scattered clouds at 1800 feet AGL
broken clouds at 3900 feet AGL
Weather: no significant weather observed at this time

Forecast for: TLPL (HEWANORRA INTL , LC)
Text: TAF TLPL 182300Z 1900/1924 09015KT 9999 SCT025
Forecast period: 0000 UTC 19 August 2019 to 0000 UTC 20 August 2019
Forecast type: FROM: standard forecast or significant change
Winds: from the E (90 degrees) at 17 MPH (15 knots; 7.7 m/s)
Visibility: 6 or more miles 10+ km)
Ceiling: at least 12,000 feet AGL
Clouds: scattered clouds at 2500 feet AGL
Weather: no significant weather forecast for this period
Text: TEMPO 1900/1912 SHRA
Forecast period: 0000 to 1200 UTC 19 August 2019
Forecast type: TEMPORARY: The following changes expected for less than half the time period
Visibility: missing
Ceiling: unknown
Clouds: missing
Weather: SHRA  (rain showers)